sensor_id;sensor_type;location;lat;lon;timestamp;temperature;humidity
15717;DHT22;7960;50.908;4.204;2022-08-19T00:00:17;21.80;99.90
15717;DHT22;7960;50.908;4.204;2022-08-19T00:02:46;21.90;99.90
15717;DHT22;7960;50.908;4.204;2022-08-19T00:05:14;22.00;99.90
15717;DHT22;7960;50.908;4.204;2022-08-19T00:07:42;21.80;99.90
15717;DHT22;7960;50.908;4.204;2022-08-19T00:10:10;21.70;99.90
15717;DHT22;7960;50.908;4.204;2022-08-19T00:12:37;21.60;99.90
15717;DHT22;7960;50.908;4.204;2022-08-19T00:15:05;21.50;99.90
15717;DHT22;7960;50.908;4.204;2022-08-19T00:17:32;21.40;99.90
15717;DHT22;7960;50.908;4.204;2022-08-19T00:20:01;21.50;99.90
15717;DHT22;7960;50.908;4.204;2022-08-19T00:22:28;21.00;99.90
15717;DHT22;7960;50.908;4.204;2022-08-19T00:24:55;21.00;99.90
15717;DHT22;7960;50.908;4.204;2022-08-19T00:27:22;21.30;99.90
15717;DHT22;7960;50.908;4.204;2022-08-19T00:29:49;21.30;99.90
15717;DHT22;7960;50.908;4.204;2022-08-19T00:32:16;21.20;99.90
15717;DHT22;7960;50.908;4.204;2022-08-19T00:34:43;21.20;99.90
15717;DHT22;7960;50.908;4.204;2022-08-19T00:37:11;21.30;99.90
15717;DHT22;7960;50.908;4.204;2022-08-19T00:39:38;21.30;99.90
15717;DHT22;7960;50.908;4.204;2022-08-19T00:42:05;21.40;99.90
15717;DHT22;7960;50.908;4.204;2022-08-19T00:44:32;21.30;99.90
15717;DHT22;7960;50.908;4.204;2022-08-19T00:46:59;21.30;99.90
15717;DHT22;7960;50.908;4.204;2022-08-19T00:49:29;21.30;99.90
15717;DHT22;7960;50.908;4.204;2022-08-19T00:52:00;21.20;99.90
15717;DHT22;7960;50.908;4.204;2022-08-19T00:54:30;21.10;99.90
15717;DHT22;7960;50.908;4.204;2022-08-19T00:56:58;21.10;99.90
15717;DHT22;7960;50.908;4.204;2022-08-19T00:59:28;21.20;99.90
15717;DHT22;7960;50.908;4.204;2022-08-19T01:01:55;21.10;99.90
15717;DHT22;7960;50.908;4.204;2022-08-19T01:04:22;21.10;99.90
15717;DHT22;7960;50.908;4.204;2022-08-19T01:06:48;21.10;99.90
15717;DHT22;7960;50.908;4.204;2022-08-19T01:09:15;21.10;99.90
15717;DHT22;7960;50.908;4.204;2022-08-19T01:11:44;21.00;99.90
15717;DHT22;7960;50.908;4.204;2022-08-19T01:14:12;21.10;99.90
15717;DHT22;7960;50.908;4.204;2022-08-19T01:16:41;21.10;99.90
15717;DHT22;7960;50.908;4.204;2022-08-19T01:19:16;21.00;99.90
15717;DHT22;7960;50.908;4.204;2022-08-19T01:21:50;21.00;99.90
15717;DHT22;7960;50.908;4.204;2022-08-19T01:24:20;20.90;99.90
15717;DHT22;7960;50.908;4.204;2022-08-19T01:26:47;20.90;99.90
15717;DHT22;7960;50.908;4.204;2022-08-19T01:29:14;20.90;99.90
15717;DHT22;7960;50.908;4.204;2022-08-19T01:31:41;20.80;99.90
15717;DHT22;7960;50.908;4.204;2022-08-19T01:34:07;20.80;99.90
15717;DHT22;7960;50.908;4.204;2022-08-19T01:36:39;20.70;99.90
15717;DHT22;7960;50.908;4.204;2022-08-19T01:39:09;20.60;99.90
15717;DHT22;7960;50.908;4.204;2022-08-19T01:41:38;20.50;99.90
15717;DHT22;7960;50.908;4.204;2022-08-19T01:44:06;20.50;99.90
15717;DHT22;7960;50.908;4.204;2022-08-19T01:46:34;20.40;99.90
15717;DHT22;7960;50.908;4.204;2022-08-19T01:49:02;20.30;99.90
15717;DHT22;7960;50.908;4.204;2022-08-19T01:51:29;20.20;99.90
15717;DHT22;7960;50.908;4.204;2022-08-19T01:53:57;20.20;99.90
15717;DHT22;7960;50.908;4.204;2022-08-19T01:56:24;20.10;99.90
15717;DHT22;7960;50.908;4.204;2022-08-19T01:58:54;20.00;99.90
15717;DHT22;7960;50.908;4.204;2022-08-19T02:01:22;20.00;99.90
15717;DHT22;7960;50.908;4.204;2022-08-19T02:03:49;20.10;99.90
15717;DHT22;7960;50.908;4.204;2022-08-19T02:06:19;20.00;99.90
15717;DHT22;7960;50.908;4.204;2022-08-19T02:08:46;20.00;99.90
15717;DHT22;7960;50.908;4.204;2022-08-19T02:11:19;20.00;99.90
15717;DHT22;7960;50.908;4.204;2022-08-19T02:13:46;20.00;99.90
15717;DHT22;7960;50.908;4.204;2022-08-19T02:16:16;20.00;99.90
15717;DHT22;7960;50.908;4.204;2022-08-19T02:18:43;19.90;99.90
15717;DHT22;7960;50.908;4.204;2022-08-19T02:21:10;20.00;99.90
15717;DHT22;7960;50.908;4.204;2022-08-19T02:23:38;19.80;99.90
15717;DHT22;7960;50.908;4.204;2022-08-19T02:26:05;19.70;99.90
15717;DHT22;7960;50.908;4.204;2022-08-19T02:28:32;19.80;99.90
15717;DHT22;7960;50.908;4.204;2022-08-19T02:30:59;19.80;99.90
15717;DHT22;7960;50.908;4.204;2022-08-19T02:33:29;19.70;99.90
15717;DHT22;7960;50.908;4.204;2022-08-19T02:35:56;19.70;99.90
15717;DHT22;7960;50.908;4.204;2022-08-19T02:38:23;19.70;99.90
15717;DHT22;7960;50.908;4.204;2022-08-19T02:40:54;19.70;99.90
15717;DHT22;7960;50.908;4.204;2022-08-19T02:43:22;19.70;99.90
15717;DHT22;7960;50.908;4.204;2022-08-19T02:45:49;19.60;99.90
15717;DHT22;7960;50.908;4.204;2022-08-19T02:48:18;19.60;99.90
15717;DHT22;7960;50.908;4.204;2022-08-19T02:50:47;19.60;99.90
15717;DHT22;7960;50.908;4.204;2022-08-19T02:53:17;19.60;99.90
15717;DHT22;7960;50.908;4.204;2022-08-19T02:55:45;19.50;99.90
15717;DHT22;7960;50.908;4.204;2022-08-19T02:58:13;19.60;99.90
15717;DHT22;7960;50.908;4.204;2022-08-19T03:00:45;19.50;99.90
15717;DHT22;7960;50.908;4.204;2022-08-19T03:03:13;19.40;99.90
15717;DHT22;7960;50.908;4.204;2022-08-19T03:05:40;19.60;99.90
15717;DHT22;7960;50.908;4.204;2022-08-19T03:08:09;19.50;99.90
15717;DHT22;7960;50.908;4.204;2022-08-19T03:10:42;19.50;99.90
15717;DHT22;7960;50.908;4.204;2022-08-19T03:13:11;19.40;99.90
15717;DHT22;7960;50.908;4.204;2022-08-19T03:15:42;19.30;99.90
15717;DHT22;7960;50.908;4.204;2022-08-19T03:18:10;19.30;99.90
15717;DHT22;7960;50.908;4.204;2022-08-19T03:20:41;19.20;99.90
15717;DHT22;7960;50.908;4.204;2022-08-19T03:23:10;19.20;99.90
15717;DHT22;7960;50.908;4.204;2022-08-19T03:25:38;19.10;99.90
15717;DHT22;7960;50.908;4.204;2022-08-19T03:28:09;19.20;99.90
15717;DHT22;7960;50.908;4.204;2022-08-19T03:30:37;19.20;99.90
15717;DHT22;7960;50.908;4.204;2022-08-19T03:33:05;19.10;99.90
15717;DHT22;7960;50.908;4.204;2022-08-19T03:35:32;19.20;99.90
15717;DHT22;7960;50.908;4.204;2022-08-19T03:38:02;19.20;99.90
15717;DHT22;7960;50.908;4.204;2022-08-19T03:40:30;19.10;99.90
15717;DHT22;7960;50.908;4.204;2022-08-19T03:42:57;18.90;99.90
15717;DHT22;7960;50.908;4.204;2022-08-19T03:45:24;18.90;99.90
15717;DHT22;7960;50.908;4.204;2022-08-19T03:47:51;18.90;99.90
15717;DHT22;7960;50.908;4.204;2022-08-19T03:50:18;18.90;99.90
15717;DHT22;7960;50.908;4.204;2022-08-19T03:52:48;18.80;99.90
15717;DHT22;7960;50.908;4.204;2022-08-19T03:55:16;18.90;99.90
15717;DHT22;7960;50.908;4.204;2022-08-19T03:57:45;18.80;99.90
15717;DHT22;7960;50.908;4.204;2022-08-19T04:00:14;18.80;99.90
15717;DHT22;7960;50.908;4.204;2022-08-19T04:02:41;18.70;99.90
15717;DHT22;7960;50.908;4.204;2022-08-19T04:05:09;18.70;99.90
15717;DHT22;7960;50.908;4.204;2022-08-19T04:07:36;18.80;99.90
15717;DHT22;7960;50.908;4.204;2022-08-19T04:10:03;18.70;99.90
15717;DHT22;7960;50.908;4.204;2022-08-19T04:12:31;18.80;99.90
15717;DHT22;7960;50.908;4.204;2022-08-19T04:14:59;18.70;99.90
15717;DHT22;7960;50.908;4.204;2022-08-19T04:17:26;18.60;99.90
15717;DHT22;7960;50.908;4.204;2022-08-19T04:19:53;18.70;99.90
15717;DHT22;7960;50.908;4.204;2022-08-19T04:22:19;18.70;99.90
15717;DHT22;7960;50.908;4.204;2022-08-19T04:24:46;18.70;99.90
15717;DHT22;7960;50.908;4.204;2022-08-19T04:27:13;18.70;99.90
15717;DHT22;7960;50.908;4.204;2022-08-19T04:29:41;18.60;99.90
15717;DHT22;7960;50.908;4.204;2022-08-19T04:32:10;18.60;99.90
15717;DHT22;7960;50.908;4.204;2022-08-19T04:34:37;18.60;99.90
15717;DHT22;7960;50.908;4.204;2022-08-19T04:37:05;18.60;99.90
15717;DHT22;7960;50.908;4.204;2022-08-19T04:39:37;18.50;99.90
15717;DHT22;7960;50.908;4.204;2022-08-19T04:42:22;18.50;99.90
15717;DHT22;7960;50.908;4.204;2022-08-19T04:45:09;18.40;99.90
15717;DHT22;7960;50.908;4.204;2022-08-19T04:47:38;18.40;99.90
15717;DHT22;7960;50.908;4.204;2022-08-19T04:50:06;18.40;99.90
15717;DHT22;7960;50.908;4.204;2022-08-19T04:52:33;18.40;99.90
15717;DHT22;7960;50.908;4.204;2022-08-19T04:55:00;18.40;99.90
15717;DHT22;7960;50.908;4.204;2022-08-19T04:57:27;18.40;99.90
15717;DHT22;7960;50.908;4.204;2022-08-19T04:59:54;18.40;99.90
15717;DHT22;7960;50.908;4.204;2022-08-19T05:02:21;18.50;99.90
15717;DHT22;7960;50.908;4.204;2022-08-19T05:04:55;18.40;99.90
15717;DHT22;7960;50.908;4.204;2022-08-19T05:07:23;18.30;99.90
15717;DHT22;7960;50.908;4.204;2022-08-19T05:09:50;18.30;99.90
15717;DHT22;7960;50.908;4.204;2022-08-19T05:12:17;18.30;99.90
15717;DHT22;7960;50.908;4.204;2022-08-19T05:14:44;18.10;99.90
15717;DHT22;7960;50.908;4.204;2022-08-19T05:17:12;18.20;99.90
15717;DHT22;7960;50.908;4.204;2022-08-19T05:19:39;18.20;99.90
15717;DHT22;7960;50.908;4.204;2022-08-19T05:22:25;18.20;99.90
15717;DHT22;7960;50.908;4.204;2022-08-19T05:25:06;18.20;99.90
15717;DHT22;7960;50.908;4.204;2022-08-19T05:27:33;18.10;99.90
15717;DHT22;7960;50.908;4.204;2022-08-19T05:30:00;18.20;99.90
15717;DHT22;7960;50.908;4.204;2022-08-19T05:32:28;18.00;99.90
15717;DHT22;7960;50.908;4.204;2022-08-19T05:34:55;18.10;99.90
15717;DHT22;7960;50.908;4.204;2022-08-19T05:37:22;18.30;99.90
15717;DHT22;7960;50.908;4.204;2022-08-19T05:39:53;18.40;99.90
15717;DHT22;7960;50.908;4.204;2022-08-19T05:42:21;18.50;99.90
15717;DHT22;7960;50.908;4.204;2022-08-19T05:44:49;18.50;99.90
15717;DHT22;7960;50.908;4.204;2022-08-19T05:47:17;18.40;99.90
15717;DHT22;7960;50.908;4.204;2022-08-19T05:49:45;18.10;99.90
15717;DHT22;7960;50.908;4.204;2022-08-19T05:52:14;18.30;99.90
15717;DHT22;7960;50.908;4.204;2022-08-19T05:54:42;18.40;99.90
15717;DHT22;7960;50.908;4.204;2022-08-19T05:57:11;18.20;99.90
15717;DHT22;7960;50.908;4.204;2022-08-19T05:59:38;18.40;99.90
15717;DHT22;7960;50.908;4.204;2022-08-19T06:02:06;18.50;99.90
15717;DHT22;7960;50.908;4.204;2022-08-19T06:04:33;18.60;99.90
15717;DHT22;7960;50.908;4.204;2022-08-19T06:07:00;18.60;99.90
15717;DHT22;7960;50.908;4.204;2022-08-19T06:09:28;18.60;99.90
15717;DHT22;7960;50.908;4.204;2022-08-19T06:11:56;18.50;99.90
15717;DHT22;7960;50.908;4.204;2022-08-19T06:14:28;18.60;99.90
15717;DHT22;7960;50.908;4.204;2022-08-19T06:16:55;18.60;99.90
15717;DHT22;7960;50.908;4.204;2022-08-19T06:19:25;18.80;99.90
15717;DHT22;7960;50.908;4.204;2022-08-19T06:21:55;18.90;99.90
15717;DHT22;7960;50.908;4.204;2022-08-19T06:24:25;18.90;99.90
15717;DHT22;7960;50.908;4.204;2022-08-19T06:26:54;19.10;99.90
15717;DHT22;7960;50.908;4.204;2022-08-19T06:29:24;19.10;99.90
15717;DHT22;7960;50.908;4.204;2022-08-19T06:31:54;19.00;99.90
15717;DHT22;7960;50.908;4.204;2022-08-19T06:34:21;18.90;99.90
15717;DHT22;7960;50.908;4.204;2022-08-19T06:36:50;18.90;99.90
15717;DHT22;7960;50.908;4.204;2022-08-19T06:39:20;19.00;99.90
15717;DHT22;7960;50.908;4.204;2022-08-19T06:41:50;19.10;99.90
15717;DHT22;7960;50.908;4.204;2022-08-19T06:44:18;19.00;99.90
15717;DHT22;7960;50.908;4.204;2022-08-19T06:46:46;19.00;99.90
15717;DHT22;7960;50.908;4.204;2022-08-19T06:49:16;19.00;99.90
15717;DHT22;7960;50.908;4.204;2022-08-19T06:51:45;19.10;99.90
15717;DHT22;7960;50.908;4.204;2022-08-19T06:54:13;19.30;99.90
15717;DHT22;7960;50.908;4.204;2022-08-19T06:56:41;19.30;99.90
15717;DHT22;7960;50.908;4.204;2022-08-19T06:59:11;19.40;99.90
15717;DHT22;7960;50.908;4.204;2022-08-19T07:01:40;19.40;99.90
15717;DHT22;7960;50.908;4.204;2022-08-19T07:04:08;19.60;99.90
15717;DHT22;7960;50.908;4.204;2022-08-19T07:06:37;19.60;99.90
15717;DHT22;7960;50.908;4.204;2022-08-19T07:09:05;19.70;99.90
15717;DHT22;7960;50.908;4.204;2022-08-19T07:11:32;19.80;99.90
15717;DHT22;7960;50.908;4.204;2022-08-19T07:13:59;19.90;99.90
15717;DHT22;7960;50.908;4.204;2022-08-19T07:16:27;19.80;99.90
15717;DHT22;7960;50.908;4.204;2022-08-19T07:18:54;19.90;99.90
15717;DHT22;7960;50.908;4.204;2022-08-19T07:21:24;19.90;99.90
15717;DHT22;7960;50.908;4.204;2022-08-19T07:23:54;19.90;99.90
15717;DHT22;7960;50.908;4.204;2022-08-19T07:26:23;20.00;99.90
15717;DHT22;7960;50.908;4.204;2022-08-19T07:28:51;20.10;99.90
15717;DHT22;7960;50.908;4.204;2022-08-19T07:31:20;20.20;99.90
15717;DHT22;7960;50.908;4.204;2022-08-19T07:33:50;20.10;99.90
15717;DHT22;7960;50.908;4.204;2022-08-19T07:36:20;20.10;99.90
15717;DHT22;7960;50.908;4.204;2022-08-19T07:38:49;20.20;99.90
15717;DHT22;7960;50.908;4.204;2022-08-19T07:41:20;20.30;99.90
15717;DHT22;7960;50.908;4.204;2022-08-19T07:43:48;20.30;99.90
15717;DHT22;7960;50.908;4.204;2022-08-19T07:46:16;20.40;99.90
15717;DHT22;7960;50.908;4.204;2022-08-19T07:48:47;20.50;99.90
15717;DHT22;7960;50.908;4.204;2022-08-19T07:51:17;20.50;99.90
15717;DHT22;7960;50.908;4.204;2022-08-19T07:53:44;20.60;99.90
15717;DHT22;7960;50.908;4.204;2022-08-19T07:56:12;20.60;99.90
15717;DHT22;7960;50.908;4.204;2022-08-19T07:58:43;20.60;99.90
15717;DHT22;7960;50.908;4.204;2022-08-19T08:01:12;20.60;99.90
15717;DHT22;7960;50.908;4.204;2022-08-19T08:03:40;20.60;99.90
15717;DHT22;7960;50.908;4.204;2022-08-19T08:06:24;20.60;99.90
15717;DHT22;7960;50.908;4.204;2022-08-19T08:09:09;20.60;99.90
15717;DHT22;7960;50.908;4.204;2022-08-19T08:11:49;20.60;99.90
15717;DHT22;7960;50.908;4.204;2022-08-19T08:14:20;20.60;99.90
15717;DHT22;7960;50.908;4.204;2022-08-19T08:16:49;20.60;99.90
15717;DHT22;7960;50.908;4.204;2022-08-19T08:19:17;20.60;99.90
15717;DHT22;7960;50.908;4.204;2022-08-19T08:21:44;20.70;99.90
15717;DHT22;7960;50.908;4.204;2022-08-19T08:24:11;20.50;99.90
15717;DHT22;7960;50.908;4.204;2022-08-19T08:26:38;20.70;99.90
15717;DHT22;7960;50.908;4.204;2022-08-19T08:29:06;20.80;99.90
15717;DHT22;7960;50.908;4.204;2022-08-19T08:31:40;20.90;99.90
15717;DHT22;7960;50.908;4.204;2022-08-19T08:34:07;20.90;99.90
15717;DHT22;7960;50.908;4.204;2022-08-19T08:36:36;20.90;99.90
15717;DHT22;7960;50.908;4.204;2022-08-19T08:39:06;21.00;99.90
15717;DHT22;7960;50.908;4.204;2022-08-19T08:41:41;21.10;99.90
15717;DHT22;7960;50.908;4.204;2022-08-19T08:44:16;21.10;99.90
15717;DHT22;7960;50.908;4.204;2022-08-19T08:46:49;20.90;99.90
15717;DHT22;7960;50.908;4.204;2022-08-19T08:49:26;20.90;99.90
15717;DHT22;7960;50.908;4.204;2022-08-19T08:52:00;21.00;99.90
15717;DHT22;7960;50.908;4.204;2022-08-19T08:54:34;21.10;99.90
15717;DHT22;7960;50.908;4.204;2022-08-19T08:57:10;21.00;99.90
15717;DHT22;7960;50.908;4.204;2022-08-19T08:59:40;21.20;99.90
15717;DHT22;7960;50.908;4.204;2022-08-19T09:02:11;21.30;99.90
15717;DHT22;7960;50.908;4.204;2022-08-19T09:04:38;21.30;99.90
15717;DHT22;7960;50.908;4.204;2022-08-19T09:07:18;21.30;99.90
15717;DHT22;7960;50.908;4.204;2022-08-19T09:09:49;21.40;99.90
15717;DHT22;7960;50.908;4.204;2022-08-19T09:12:31;21.60;99.90
15717;DHT22;7960;50.908;4.204;2022-08-19T09:15:20;21.60;99.90
15717;DHT22;7960;50.908;4.204;2022-08-19T09:17:50;21.50;99.90
15717;DHT22;7960;50.908;4.204;2022-08-19T09:20:20;21.50;99.90
15717;DHT22;7960;50.908;4.204;2022-08-19T09:22:47;21.60;99.90
15717;DHT22;7960;50.908;4.204;2022-08-19T09:25:16;21.60;99.90
15717;DHT22;7960;50.908;4.204;2022-08-19T09:27:45;21.60;99.90
15717;DHT22;7960;50.908;4.204;2022-08-19T09:30:16;21.80;99.90
15717;DHT22;7960;50.908;4.204;2022-08-19T09:32:44;21.70;99.90
15717;DHT22;7960;50.908;4.204;2022-08-19T09:35:14;21.80;99.90
15717;DHT22;7960;50.908;4.204;2022-08-19T09:37:42;21.70;99.90
15717;DHT22;7960;50.908;4.204;2022-08-19T09:40:11;21.70;99.90
15717;DHT22;7960;50.908;4.204;2022-08-19T09:42:38;21.60;99.90
15717;DHT22;7960;50.908;4.204;2022-08-19T09:45:06;21.60;99.90
15717;DHT22;7960;50.908;4.204;2022-08-19T09:47:34;21.60;99.90
15717;DHT22;7960;50.908;4.204;2022-08-19T09:50:04;21.60;99.90
15717;DHT22;7960;50.908;4.204;2022-08-19T09:52:36;21.60;99.90
15717;DHT22;7960;50.908;4.204;2022-08-19T09:55:04;21.60;99.90
15717;DHT22;7960;50.908;4.204;2022-08-19T09:57:31;21.60;99.90
15717;DHT22;7960;50.908;4.204;2022-08-19T09:59:58;21.60;99.90
15717;DHT22;7960;50.908;4.204;2022-08-19T10:02:25;21.60;99.90
15717;DHT22;7960;50.908;4.204;2022-08-19T10:04:52;21.60;99.90
15717;DHT22;7960;50.908;4.204;2022-08-19T10:07:38;21.70;99.90
15717;DHT22;7960;50.908;4.204;2022-08-19T10:10:07;21.70;99.90
15717;DHT22;7960;50.908;4.204;2022-08-19T10:12:35;21.80;99.90
15717;DHT22;7960;50.908;4.204;2022-08-19T10:15:03;21.80;99.90
15717;DHT22;7960;50.908;4.204;2022-08-19T10:17:32;21.80;99.90
15717;DHT22;7960;50.908;4.204;2022-08-19T10:20:01;21.80;99.90
15717;DHT22;7960;50.908;4.204;2022-08-19T10:22:30;21.80;99.90
15717;DHT22;7960;50.908;4.204;2022-08-19T10:24:58;21.90;99.90
15717;DHT22;7960;50.908;4.204;2022-08-19T10:27:25;22.00;99.90
15717;DHT22;7960;50.908;4.204;2022-08-19T10:29:52;21.90;99.90
15717;DHT22;7960;50.908;4.204;2022-08-19T10:32:19;21.90;99.90
15717;DHT22;7960;50.908;4.204;2022-08-19T10:34:47;21.90;99.90
15717;DHT22;7960;50.908;4.204;2022-08-19T10:37:15;21.90;99.90
15717;DHT22;7960;50.908;4.204;2022-08-19T10:39:45;21.80;99.90
15717;DHT22;7960;50.908;4.204;2022-08-19T10:42:15;21.70;99.90
15717;DHT22;7960;50.908;4.204;2022-08-19T10:44:44;21.70;99.90
15717;DHT22;7960;50.908;4.204;2022-08-19T10:47:12;21.70;99.90
15717;DHT22;7960;50.908;4.204;2022-08-19T10:49:39;21.80;99.90
15717;DHT22;7960;50.908;4.204;2022-08-19T10:52:20;21.90;99.90
15717;DHT22;7960;50.908;4.204;2022-08-19T10:55:03;22.00;99.90
15717;DHT22;7960;50.908;4.204;2022-08-19T10:57:49;22.10;99.90
15717;DHT22;7960;50.908;4.204;2022-08-19T11:00:18;22.20;99.90
15717;DHT22;7960;50.908;4.204;2022-08-19T11:02:46;22.30;99.90
15717;DHT22;7960;50.908;4.204;2022-08-19T11:05:13;22.30;99.90
15717;DHT22;7960;50.908;4.204;2022-08-19T11:07:40;22.20;99.90
15717;DHT22;7960;50.908;4.204;2022-08-19T11:10:10;22.20;99.90
15717;DHT22;7960;50.908;4.204;2022-08-19T11:12:37;22.20;99.90
15717;DHT22;7960;50.908;4.204;2022-08-19T11:15:08;22.10;99.90
15717;DHT22;7960;50.908;4.204;2022-08-19T11:17:37;22.10;99.90
15717;DHT22;7960;50.908;4.204;2022-08-19T11:20:07;22.20;99.90
15717;DHT22;7960;50.908;4.204;2022-08-19T11:22:34;22.30;99.90
15717;DHT22;7960;50.908;4.204;2022-08-19T11:25:02;22.20;99.90
15717;DHT22;7960;50.908;4.204;2022-08-19T11:27:29;22.30;99.90
15717;DHT22;7960;50.908;4.204;2022-08-19T11:29:56;22.50;99.90
15717;DHT22;7960;50.908;4.204;2022-08-19T11:32:26;22.50;99.90
15717;DHT22;7960;50.908;4.204;2022-08-19T11:34:53;22.70;99.90
15717;DHT22;7960;50.908;4.204;2022-08-19T11:37:20;22.80;99.90
15717;DHT22;7960;50.908;4.204;2022-08-19T11:39:47;23.00;99.90
15717;DHT22;7960;50.908;4.204;2022-08-19T11:42:14;23.20;99.90
15717;DHT22;7960;50.908;4.204;2022-08-19T11:45:00;23.20;99.90
15717;DHT22;7960;50.908;4.204;2022-08-19T11:47:29;23.30;99.90
15717;DHT22;7960;50.908;4.204;2022-08-19T11:49:57;23.30;99.90
15717;DHT22;7960;50.908;4.204;2022-08-19T11:52:24;23.40;99.90
15717;DHT22;7960;50.908;4.204;2022-08-19T11:54:50;23.50;99.90
15717;DHT22;7960;50.908;4.204;2022-08-19T11:57:17;23.50;99.90
15717;DHT22;7960;50.908;4.204;2022-08-19T11:59:48;23.50;99.90
15717;DHT22;7960;50.908;4.204;2022-08-19T12:02:15;23.60;99.90
15717;DHT22;7960;50.908;4.204;2022-08-19T12:04:44;23.60;99.90
15717;DHT22;7960;50.908;4.204;2022-08-19T12:07:11;23.60;99.90
15717;DHT22;7960;50.908;4.204;2022-08-19T12:09:37;23.50;99.90
15717;DHT22;7960;50.908;4.204;2022-08-19T12:12:05;23.40;99.90
15717;DHT22;7960;50.908;4.204;2022-08-19T12:14:32;23.40;99.90
15717;DHT22;7960;50.908;4.204;2022-08-19T12:16:59;23.60;99.90
15717;DHT22;7960;50.908;4.204;2022-08-19T12:19:27;23.70;99.90
15717;DHT22;7960;50.908;4.204;2022-08-19T12:21:58;23.80;99.90
15717;DHT22;7960;50.908;4.204;2022-08-19T12:24:27;23.80;99.90
15717;DHT22;7960;50.908;4.204;2022-08-19T12:26:54;23.90;99.90
15717;DHT22;7960;50.908;4.204;2022-08-19T12:29:22;23.80;99.90
15717;DHT22;7960;50.908;4.204;2022-08-19T12:31:49;23.80;99.90
15717;DHT22;7960;50.908;4.204;2022-08-19T12:34:16;23.80;99.90
15717;DHT22;7960;50.908;4.204;2022-08-19T12:36:45;23.80;99.90
15717;DHT22;7960;50.908;4.204;2022-08-19T12:39:16;23.90;99.90
15717;DHT22;7960;50.908;4.204;2022-08-19T12:41:42;24.00;99.90
15717;DHT22;7960;50.908;4.204;2022-08-19T12:44:09;23.90;99.90
15717;DHT22;7960;50.908;4.204;2022-08-19T12:46:37;23.90;99.90
15717;DHT22;7960;50.908;4.204;2022-08-19T12:49:04;24.10;99.90
15717;DHT22;7960;50.908;4.204;2022-08-19T12:51:31;24.30;99.90
15717;DHT22;7960;50.908;4.204;2022-08-19T12:53:58;24.90;99.90
15717;DHT22;7960;50.908;4.204;2022-08-19T12:56:28;25.20;99.90
15717;DHT22;7960;50.908;4.204;2022-08-19T12:58:55;25.70;99.90
15717;DHT22;7960;50.908;4.204;2022-08-19T13:01:22;25.50;99.90
15717;DHT22;7960;50.908;4.204;2022-08-19T13:03:49;25.60;99.90
15717;DHT22;7960;50.908;4.204;2022-08-19T13:06:16;25.50;99.90
15717;DHT22;7960;50.908;4.204;2022-08-19T13:08:44;25.20;99.90
15717;DHT22;7960;50.908;4.204;2022-08-19T13:11:14;25.00;99.90
15717;DHT22;7960;50.908;4.204;2022-08-19T13:13:45;24.70;99.90
15717;DHT22;7960;50.908;4.204;2022-08-19T13:16:13;24.60;99.90
15717;DHT22;7960;50.908;4.204;2022-08-19T13:18:41;24.40;99.90
15717;DHT22;7960;50.908;4.204;2022-08-19T13:21:10;24.40;99.90
15717;DHT22;7960;50.908;4.204;2022-08-19T13:23:39;24.50;99.90
15717;DHT22;7960;50.908;4.204;2022-08-19T13:26:08;24.50;99.90
15717;DHT22;7960;50.908;4.204;2022-08-19T13:28:35;24.50;99.90
15717;DHT22;7960;50.908;4.204;2022-08-19T13:31:19;24.60;99.90
15717;DHT22;7960;50.908;4.204;2022-08-19T13:34:05;24.70;99.90
15717;DHT22;7960;50.908;4.204;2022-08-19T13:36:32;24.80;99.90
15717;DHT22;7960;50.908;4.204;2022-08-19T13:38:59;25.10;99.90
15717;DHT22;7960;50.908;4.204;2022-08-19T13:41:27;25.20;99.90
15717;DHT22;7960;50.908;4.204;2022-08-19T13:43:54;25.10;99.90
15717;DHT22;7960;50.908;4.204;2022-08-19T13:46:22;25.00;99.90
15717;DHT22;7960;50.908;4.204;2022-08-19T13:48:49;24.90;99.90
15717;DHT22;7960;50.908;4.204;2022-08-19T13:51:17;25.00;99.90
15717;DHT22;7960;50.908;4.204;2022-08-19T13:53:44;25.00;99.90
15717;DHT22;7960;50.908;4.204;2022-08-19T13:56:12;24.70;99.90
15717;DHT22;7960;50.908;4.204;2022-08-19T13:58:43;24.40;99.90
15717;DHT22;7960;50.908;4.204;2022-08-19T14:01:10;24.00;99.90
15717;DHT22;7960;50.908;4.204;2022-08-19T14:03:38;23.80;99.90
15717;DHT22;7960;50.908;4.204;2022-08-19T14:06:05;23.50;99.90
15717;DHT22;7960;50.908;4.204;2022-08-19T14:08:32;23.20;99.90
15717;DHT22;7960;50.908;4.204;2022-08-19T14:11:01;23.10;99.90
15717;DHT22;7960;50.908;4.204;2022-08-19T14:13:28;23.00;99.90
15717;DHT22;7960;50.908;4.204;2022-08-19T14:15:55;23.10;99.90
15717;DHT22;7960;50.908;4.204;2022-08-19T14:18:23;23.10;99.90
15717;DHT22;7960;50.908;4.204;2022-08-19T14:20:51;23.10;99.90
15717;DHT22;7960;50.908;4.204;2022-08-19T14:23:19;23.20;99.90
15717;DHT22;7960;50.908;4.204;2022-08-19T14:25:47;23.10;99.90
15717;DHT22;7960;50.908;4.204;2022-08-19T14:28:14;23.20;99.90
15717;DHT22;7960;50.908;4.204;2022-08-19T14:30:42;23.10;99.90
15717;DHT22;7960;50.908;4.204;2022-08-19T14:33:10;23.10;99.90
15717;DHT22;7960;50.908;4.204;2022-08-19T14:35:37;23.00;99.90
15717;DHT22;7960;50.908;4.204;2022-08-19T14:38:06;23.20;99.90
15717;DHT22;7960;50.908;4.204;2022-08-19T14:40:42;23.20;99.90
15717;DHT22;7960;50.908;4.204;2022-08-19T14:43:09;23.30;99.90
15717;DHT22;7960;50.908;4.204;2022-08-19T14:45:37;23.60;99.90
15717;DHT22;7960;50.908;4.204;2022-08-19T14:48:05;24.00;99.90
15717;DHT22;7960;50.908;4.204;2022-08-19T14:50:33;24.70;99.90
15717;DHT22;7960;50.908;4.204;2022-08-19T14:53:04;25.50;99.90
15717;DHT22;7960;50.908;4.204;2022-08-19T14:55:33;26.30;99.90
15717;DHT22;7960;50.908;4.204;2022-08-19T14:58:00;25.60;99.90
15717;DHT22;7960;50.908;4.204;2022-08-19T15:00:27;26.10;99.90
15717;DHT22;7960;50.908;4.204;2022-08-19T15:02:55;26.70;99.90
15717;DHT22;7960;50.908;4.204;2022-08-19T15:05:22;26.30;99.90
15717;DHT22;7960;50.908;4.204;2022-08-19T15:07:49;26.10;99.90
15717;DHT22;7960;50.908;4.204;2022-08-19T15:10:16;25.60;99.90
15717;DHT22;7960;50.908;4.204;2022-08-19T15:12:44;25.40;99.90
15717;DHT22;7960;50.908;4.204;2022-08-19T15:15:13;25.20;99.90
15717;DHT22;7960;50.908;4.204;2022-08-19T15:17:43;24.90;99.90
15717;DHT22;7960;50.908;4.204;2022-08-19T15:20:11;24.60;99.90
15717;DHT22;7960;50.908;4.204;2022-08-19T15:22:39;24.40;99.90
15717;DHT22;7960;50.908;4.204;2022-08-19T15:25:11;24.30;99.90
15717;DHT22;7960;50.908;4.204;2022-08-19T15:27:38;24.20;99.90
15717;DHT22;7960;50.908;4.204;2022-08-19T15:30:09;24.10;99.90
15717;DHT22;7960;50.908;4.204;2022-08-19T15:32:37;24.10;99.90
15717;DHT22;7960;50.908;4.204;2022-08-19T15:35:06;24.10;99.90
15717;DHT22;7960;50.908;4.204;2022-08-19T15:37:33;24.10;99.90
15717;DHT22;7960;50.908;4.204;2022-08-19T15:40:00;24.20;99.90
15717;DHT22;7960;50.908;4.204;2022-08-19T15:42:27;24.10;99.90
15717;DHT22;7960;50.908;4.204;2022-08-19T15:44:54;24.20;99.90
15717;DHT22;7960;50.908;4.204;2022-08-19T15:47:22;24.70;99.90
15717;DHT22;7960;50.908;4.204;2022-08-19T15:49:50;25.00;99.90
15717;DHT22;7960;50.908;4.204;2022-08-19T15:52:19;25.50;99.90
15717;DHT22;7960;50.908;4.204;2022-08-19T15:54:46;24.80;99.90